Time;durP1;ratioP1;P1;durP2;ratioP2;P2;SDS_P1;SDS_P2;PMS_P1;PMS_P2;Temp;Humidity;BMP_temperature;BMP_pressure;BME280_temperature;BME280_humidity;BME280_pressure;Samples;Min_cycle;Max_cycle;Signal;HPM_P1;HPM_P2
2021/06/22 00:00:09;;;;;;;1.40;0.80;;;21.80;58.80;;;;;;5033128;28;20028;-46
2021/06/22 00:02:35;;;;;;;2.10;1.23;;;22.00;58.90;;;;;;5033093;28;20033;-45
2021/06/22 00:05:00;;;;;;;3.90;1.30;;;22.00;58.90;;;;;;5032511;28;20463;-45
2021/06/22 00:07:26;;;;;;;2.13;1.08;;;22.00;58.90;;;;;;5032862;28;20087;-46
2021/06/22 00:09:52;;;;;;;1.85;1.10;;;22.00;58.90;;;;;;5031709;28;20049;-46
2021/06/22 00:12:17;;;;;;;2.28;1.17;;;21.70;58.80;;;;;;5033006;28;20029;-46
2021/06/22 00:14:43;;;;;;;5.28;1.58;;;22.00;59.00;;;;;;5032972;28;20535;-46
2021/06/22 00:17:09;;;;;;;5.55;1.20;;;22.00;58.90;;;;;;5032941;28;20045;-46
2021/06/22 00:19:34;;;;;;;1.83;1.05;;;22.00;58.90;;;;;;5032952;28;20022;-48
2021/06/22 00:22:00;;;;;;;2.05;0.93;;;21.90;58.90;;;;;;5032664;28;20062;-46
2021/06/22 00:24:25;;;;;;;3.22;1.33;;;22.00;59.00;;;;;;5032597;28;20076;-46
2021/06/22 00:26:51;;;;;;;3.38;1.23;;;21.80;58.90;;;;;;5032895;28;20071;-45
2021/06/22 00:29:17;;;;;;;2.28;1.10;;;22.00;59.00;;;;;;5032837;28;20396;-46
2021/06/22 00:31:42;;;;;;;2.35;1.05;;;22.10;59.10;;;;;;5032799;28;20065;-45
2021/06/22 00:34:08;;;;;;;2.40;1.20;;;21.70;58.80;;;;;;5033091;28;20022;-46
2021/06/22 00:36:34;;;;;;;2.15;1.30;;;21.90;58.90;;;;;;5032732;28;20033;-46
2021/06/22 00:38:59;;;;;;;2.58;0.93;;;21.80;58.90;;;;;;5032356;28;20483;-46
2021/06/22 00:41:25;;;;;;;1.25;1.08;;;21.70;59.50;;;;;;5031468;28;20028;-46
2021/06/22 00:43:50;;;;;;;2.30;0.95;;;21.90;59.00;;;;;;5032440;28;20101;-46
2021/06/22 00:46:16;;;;;;;1.95;0.90;;;22.10;59.10;;;;;;5032608;28;20052;-46
2021/06/22 00:48:41;;;;;;;2.42;1.17;;;21.90;59.00;;;;;;5032599;28;20091;-45
2021/06/22 00:51:07;;;;;;;3.50;1.60;;;21.70;58.90;;;;;;5032564;28;20018;-46
2021/06/22 00:53:35;;;;;;;1.83;0.98;;;22.30;59.30;;;;;;5032613;28;20450;-45
2021/06/22 00:56:01;;;;;;;2.08;1.20;;;21.90;59.00;;;;;;5030960;28;20503;-46
2021/06/22 00:58:26;;;;;;;2.25;1.20;;;21.70;58.90;;;;;;5032256;28;20057;-46
2021/06/22 01:00:52;;;;;;;1.88;1.00;;;21.70;58.90;;;;;;5032121;28;20022;-46
2021/06/22 01:03:18;;;;;;;2.95;1.10;;;21.90;59.00;;;;;;5032429;28;20017;-45
2021/06/22 01:05:44;;;;;;;3.58;1.10;;;21.70;59.00;;;;;;5031993;28;20124;-46
2021/06/22 01:08:11;;;;;;;2.08;1.33;;;21.80;59.00;;;;;;5032228;28;20018;-45
2021/06/22 01:10:38;;;;;;;1.92;0.98;;;21.60;58.90;;;;;;5032483;28;20049;-46
2021/06/22 01:13:04;;;;;;;1.27;1.17;;;21.70;59.00;;;;;;5032193;28;20468;-45
2021/06/22 01:15:30;;;;;;;1.45;1.10;;;21.80;59.00;;;;;;5033380;28;20033;-45
2021/06/22 01:17:58;;;;;;;2.17;1.27;;;21.80;59.00;;;;;;5035834;28;20025;-45
2021/06/22 01:20:30;;;;;;;3.42;1.20;;;21.80;59.00;;;;;;5035818;28;20458;-46
2021/06/22 01:22:57;;;;;;;2.58;1.23;;;21.90;59.30;;;;;;5036004;28;20365;-46
2021/06/22 01:25:23;;;;;;;2.20;0.98;;;21.80;59.10;;;;;;5035747;28;20026;-45
2021/06/22 01:27:48;;;;;;;1.35;1.00;;;21.50;58.90;;;;;;5035910;28;20033;-46
2021/06/22 01:30:15;;;;;;;2.75;1.30;;;21.80;59.10;;;;;;5035867;28;20104;-46
2021/06/22 01:32:44;;;;;;;3.25;1.50;;;21.80;59.10;;;;;;5035873;28;20099;-46
2021/06/22 01:35:11;;;;;;;0.90;0.80;;;21.80;59.10;;;;;;5035496;28;20017;-46
2021/06/22 01:37:48;;;;;;;1.98;1.10;;;21.80;59.10;;;;;;5035561;28;20030;-45
2021/06/22 01:40:14;;;;;;;1.75;1.50;;;21.80;59.10;;;;;;5035635;28;20025;-46
2021/06/22 01:42:40;;;;;;;1.83;1.15;;;21.80;59.10;;;;;;5035684;28;20052;-45
2021/06/22 01:45:06;;;;;;;2.42;1.05;;;22.20;59.30;;;;;;5035582;28;20096;-45
2021/06/22 01:47:31;;;;;;;3.50;1.40;;;21.70;59.10;;;;;;5035555;28;20025;-46
2021/06/22 01:50:01;;;;;;;1.63;1.20;;;21.80;59.10;;;;;;5035538;28;20024;-47
2021/06/22 01:52:27;;;;;;;2.17;1.20;;;21.80;59.10;;;;;;5035449;28;20025;-45
2021/06/22 01:54:54;;;;;;;1.63;1.10;;;21.80;59.10;;;;;;5035429;28;20120;-45
2021/06/22 01:57:24;;;;;;;1.98;1.40;;;21.70;59.10;;;;;;5035084;28;20037;-46
2021/06/22 01:59:50;;;;;;;1.10;0.97;;;21.70;59.10;;;;;;5035241;28;20380;-45
2021/06/22 02:02:16;;;;;;;2.42;1.27;;;21.50;59.00;;;;;;5035397;28;20013;-46
2021/06/22 02:04:42;;;;;;;2.00;1.25;;;22.00;59.20;;;;;;5034807;28;20052;-46
2021/06/22 02:07:07;;;;;;;2.80;1.50;;;21.60;59.00;;;;;;5035275;28;20032;-45
2021/06/22 02:09:33;;;;;;;2.65;1.50;;;21.90;59.20;;;;;;5035096;28;20112;-46
2021/06/22 02:11:58;;;;;;;2.10;1.25;;;21.50;59.00;;;;;;5034829;28;20017;-47
2021/06/22 02:14:24;;;;;;;2.67;1.17;;;21.70;59.10;;;;;;5034794;28;20026;-48
2021/06/22 02:16:50;;;;;;;2.38;1.40;;;21.50;59.00;;;;;;5034668;28;20125;-47
2021/06/22 02:19:16;;;;;;;2.30;1.10;;;21.60;59.10;;;;;;5034775;28;20029;-46
2021/06/22 02:21:42;;;;;;;2.35;1.30;;;21.60;59.70;;;;;;5034614;28;20021;-46
2021/06/22 02:24:07;;;;;;;2.50;1.27;;;21.70;59.10;;;;;;5034647;28;20018;-45
2021/06/22 02:26:33;;;;;;;1.73;1.20;;;21.70;59.10;;;;;;5034699;28;20045;-46
2021/06/22 02:28:58;;;;;;;2.47;1.35;;;21.70;59.10;;;;;;5034843;28;20009;-45
2021/06/22 02:31:24;;;;;;;1.98;1.17;;;21.70;59.10;;;;;;5034440;28;20063;-47
2021/06/22 02:33:50;;;;;;;3.13;1.30;;;21.70;59.10;;;;;;5034368;28;20021;-46
2021/06/22 02:36:18;;;;;;;1.00;0.90;;;21.70;59.10;;;;;;5034635;28;20084;-46
2021/06/22 02:38:43;;;;;;;3.25;1.60;;;21.70;59.10;;;;;;5034289;28;20476;-47
2021/06/22 02:41:09;;;;;;;3.88;1.70;;;21.70;59.10;;;;;;5034657;28;20063;-46
2021/06/22 02:43:35;;;;;;;2.30;1.20;;;21.70;59.10;;;;;;5034560;28;20021;-46
2021/06/22 02:46:00;;;;;;;2.15;1.40;;;21.60;59.10;;;;;;5034220;28;20086;-45
2021/06/22 02:48:26;;;;;;;1.98;1.10;;;21.70;59.20;;;;;;5034170;28;20033;-46
2021/06/22 02:50:52;;;;;;;1.98;1.30;;;21.50;59.10;;;;;;5034414;28;20029;-45
2021/06/22 02:53:17;;;;;;;2.08;1.33;;;21.40;59.00;;;;;;5034097;28;20026;-45
2021/06/22 02:55:43;;;;;;;2.95;1.48;;;21.70;59.80;;;;;;5033049;28;20116;-45
2021/06/22 02:58:08;;;;;;;2.78;1.33;;;21.60;59.20;;;;;;5034021;28;20392;-45
2021/06/22 03:00:34;;;;;;;1.98;1.40;;;21.40;59.00;;;;;;5034056;28;20072;-46
2021/06/22 03:03:00;;;;;;;1.83;1.13;;;21.40;59.00;;;;;;5034080;28;20033;-46
2021/06/22 03:05:26;;;;;;;1.50;1.40;;;21.90;59.30;;;;;;5033756;28;20041;-46
2021/06/22 03:07:52;;;;;;;1.58;1.25;;;21.60;59.20;;;;;;5033859;28;20061;-46
2021/06/22 03:10:19;;;;;;;1.38;1.25;;;21.60;59.20;;;;;;5033760;28;20060;-45
2021/06/22 03:12:46;;;;;;;2.88;1.55;;;21.50;59.10;;;;;;5033978;28;20120;-46
2021/06/22 03:15:13;;;;;;;1.58;1.35;;;22.00;59.40;;;;;;5033714;28;20025;-46
2021/06/22 03:17:39;;;;;;;1.90;1.33;;;21.60;59.20;;;;;;5033430;28;20120;-47
2021/06/22 03:20:07;;;;;;;2.03;1.10;;;21.60;59.20;;;;;;5033877;28;20021;-46
2021/06/22 03:22:33;;;;;;;2.58;1.25;;;21.60;59.20;;;;;;5033535;28;20117;-46
2021/06/22 03:24:58;;;;;;;2.42;1.60;;;21.60;59.20;;;;;;5033525;28;20056;-47
2021/06/22 03:27:24;;;;;;;3.55;1.40;;;21.30;59.00;;;;;;5033765;28;20025;-46
2021/06/22 03:29:50;;;;;;;2.22;1.38;;;21.60;59.20;;;;;;5033799;28;20484;-46
2021/06/22 03:32:16;;;;;;;1.55;1.40;;;21.60;59.30;;;;;;5033717;28;20013;-47
2021/06/22 03:34:41;;;;;;;2.63;1.40;;;21.60;59.20;;;;;;5033744;28;20021;-47
2021/06/22 03:37:07;;;;;;;2.10;1.30;;;21.50;59.20;;;;;;5031965;28;20033;-46
2021/06/22 03:39:34;;;;;;;2.53;1.65;;;21.50;59.20;;;;;;5032773;28;20034;-46
2021/06/22 03:41:59;;;;;;;1.70;1.20;;;21.50;59.20;;;;;;5031941;28;20024;-46
2021/06/22 03:44:25;;;;;;;1.88;1.27;;;21.50;59.20;;;;;;5033224;28;20387;-45
2021/06/22 03:46:50;;;;;;;1.42;1.08;;;21.50;59.20;;;;;;5033237;28;20034;-45
2021/06/22 03:49:16;;;;;;;1.63;1.30;;;21.50;59.30;;;;;;5033386;28;20053;-46
2021/06/22 03:51:42;;;;;;;3.50;1.33;;;21.60;59.30;;;;;;5033065;28;20415;-46
2021/06/22 03:54:08;;;;;;;1.75;1.33;;;21.80;59.40;;;;;;5033356;28;20025;-46
2021/06/22 03:56:34;;;;;;;1.85;1.48;;;21.60;59.30;;;;;;5032916;28;20025;-46
2021/06/22 03:58:59;;;;;;;2.05;1.60;;;21.80;59.40;;;;;;5033197;28;20086;-47
2021/06/22 04:01:25;;;;;;;2.60;1.50;;;21.70;59.40;;;;;;5033057;28;20103;-47
2021/06/22 04:03:51;;;;;;;1.52;1.40;;;21.40;59.20;;;;;;5032776;28;20071;-46
2021/06/22 04:06:16;;;;;;;1.33;1.00;;;21.50;59.30;;;;;;5032789;28;20053;-46
2021/06/22 04:08:42;;;;;;;1.85;1.30;;;21.50;59.30;;;;;;5032767;28;20025;-45
2021/06/22 04:11:09;;;;;;;2.05;1.13;;;21.50;59.30;;;;;;5031498;28;20021;-47
2021/06/22 04:13:35;;;;;;;2.28;1.40;;;21.50;59.30;;;;;;5032986;28;20108;-45
2021/06/22 04:16:01;;;;;;;1.88;1.70;;;21.50;59.40;;;;;;5032663;28;20128;-46
2021/06/22 04:18:27;;;;;;;2.67;1.65;;;21.50;59.40;;;;;;5033015;28;20105;-46
2021/06/22 04:20:53;;;;;;;1.77;1.30;;;21.50;59.30;;;;;;5032679;28;20033;-46
2021/06/22 04:23:18;;;;;;;2.33;1.70;;;21.00;59.10;;;;;;5032962;28;20018;-46
2021/06/22 04:25:44;;;;;;;1.88;1.50;;;21.50;59.40;;;;;;5031357;28;20040;-46
2021/06/22 04:28:10;;;;;;;1.30;1.17;;;21.40;59.30;;;;;;5032603;28;20017;-44
2021/06/22 04:30:37;;;;;;;1.48;1.17;;;21.40;59.30;;;;;;5032569;28;20449;-45
2021/06/22 04:33:03;;;;;;;1.40;1.20;;;21.40;59.30;;;;;;5032494;28;20028;-45
2021/06/22 04:35:30;;;;;;;2.53;1.67;;;21.50;59.40;;;;;;5032644;28;20240;-47
2021/06/22 04:37:57;;;;;;;2.40;1.35;;;21.50;59.40;;;;;;5032804;28;20036;-46
2021/06/22 04:40:23;;;;;;;1.90;1.40;;;21.50;59.40;;;;;;5032731;28;20029;-46
2021/06/22 04:42:48;;;;;;;1.58;1.33;;;21.40;59.30;;;;;;5031204;28;20385;-47
2021/06/22 04:45:15;;;;;;;2.92;1.40;;;21.40;59.30;;;;;;5032700;28;20075;-47
2021/06/22 04:47:41;;;;;;;2.28;1.40;;;21.50;59.50;;;;;;5032674;28;20032;-48
2021/06/22 04:50:07;;;;;;;2.08;1.30;;;21.50;59.40;;;;;;5033086;28;20441;-46
2021/06/22 04:52:33;;;;;;;1.60;1.27;;;21.40;59.40;;;;;;5036708;28;20056;-46
2021/06/22 04:54:58;;;;;;;1.88;1.00;;;21.50;59.40;;;;;;5036540;28;20029;-46
2021/06/22 04:57:24;;;;;;;2.67;1.40;;;21.50;59.50;;;;;;5036730;28;20095;-45
2021/06/22 04:59:50;;;;;;;2.10;1.40;;;21.50;59.50;;;;;;5036455;28;20049;-46
2021/06/22 05:02:16;;;;;;;1.77;1.00;;;21.50;59.50;;;;;;5035265;28;20475;-45
2021/06/22 05:04:41;;;;;;;2.47;1.30;;;21.40;59.40;;;;;;5034781;28;20511;-46
2021/06/22 05:07:07;;;;;;;1.80;1.17;;;21.50;59.50;;;;;;5036368;28;20018;-46
2021/06/22 05:09:33;;;;;;;2.97;1.73;;;21.40;59.40;;;;;;5036338;28;20376;-46
2021/06/22 05:11:58;;;;;;;1.88;1.33;;;21.40;59.40;;;;;;5035977;28;20022;-46
2021/06/22 05:14:24;;;;;;;2.65;1.38;;;21.40;59.40;;;;;;5035868;28;20030;-46
2021/06/22 05:16:49;;;;;;;3.42;1.50;;;21.40;59.40;;;;;;5035776;28;20125;-46
2021/06/22 05:19:16;;;;;;;2.00;1.48;;;21.30;59.40;;;;;;5036018;28;20021;-46
2021/06/22 05:21:42;;;;;;;2.10;1.27;;;21.20;59.40;;;;;;5036064;28;20025;-47
2021/06/22 05:24:09;;;;;;;1.30;1.10;;;21.50;60.00;;;;;;5035959;28;20380;-46
2021/06/22 05:26:34;;;;;;;2.13;1.27;;;21.50;59.50;;;;;;5035726;28;20076;-46
2021/06/22 05:29:00;;;;;;;3.05;1.73;;;21.50;59.50;;;;;;5035652;28;20022;-46
2021/06/22 05:31:25;;;;;;;2.40;1.70;;;21.40;59.40;;;;;;5035886;28;20040;-47
2021/06/22 05:33:51;;;;;;;4.45;1.48;;;21.40;59.40;;;;;;5035816;28;20014;-46
2021/06/22 05:36:16;;;;;;;2.25;1.40;;;21.50;59.50;;;;;;5035720;28;20022;-47
2021/06/22 05:38:42;;;;;;;1.77;1.25;;;21.40;59.50;;;;;;5035744;28;20037;-47
2021/06/22 05:41:08;;;;;;;2.67;1.48;;;21.30;59.50;;;;;;5035435;28;20032;-47
2021/06/22 05:43:34;;;;;;;2.17;1.63;;;21.40;59.60;;;;;;5035576;28;20060;-47
2021/06/22 05:46:00;;;;;;;4.22;1.83;;;21.10;59.40;;;;;;5035486;28;20029;-46
2021/06/22 05:48:25;;;;;;;1.65;1.40;;;21.40;59.40;;;;;;5035185;28;20026;-46
2021/06/22 05:50:51;;;;;;;3.63;1.50;;;21.40;59.40;;;;;;5035488;28;20026;-47
2021/06/22 05:53:16;;;;;;;3.50;1.77;;;21.50;59.40;;;;;;5035535;28;20030;-47
2021/06/22 05:55:42;;;;;;;4.65;1.85;;;21.50;59.40;;;;;;5035464;28;20048;-46
2021/06/22 05:58:09;;;;;;;2.15;1.88;;;21.80;59.60;;;;;;5035109;28;20033;-46
2021/06/22 06:00:35;;;;;;;5.70;1.70;;;21.50;59.80;;;;;;5033394;28;20479;-46
2021/06/22 06:03:00;;;;;;;3.63;2.10;;;21.40;59.50;;;;;;5034761;28;20032;-47
2021/06/22 06:05:26;;;;;;;4.75;2.00;;;21.50;59.30;;;;;;5033566;28;20044;-48
2021/06/22 06:07:53;;;;;;;2.50;2.20;;;21.40;59.30;;;;;;5034856;28;20021;-46
2021/06/22 06:10:19;;;;;;;3.88;2.53;;;21.50;59.50;;;;;;5033632;28;20049;-47
2021/06/22 06:12:45;;;;;;;4.95;2.20;;;21.40;59.60;;;;;;5034885;28;20043;-46
2021/06/22 06:15:12;;;;;;;4.82;2.20;;;21.40;59.70;;;;;;5035094;28;20171;-48
2021/06/22 06:17:38;;;;;;;5.20;2.78;;;21.40;60.10;;;;;;5034656;28;20037;-46
2021/06/22 06:20:09;;;;;;;4.47;2.60;;;21.60;59.50;;;;;;5034564;28;20018;-44
2021/06/22 06:22:36;;;;;;;2.55;2.17;;;21.40;59.60;;;;;;5034956;28;20029;-46
2021/06/22 06:25:04;;;;;;;5.80;2.30;;;21.40;59.50;;;;;;5034537;28;20108;-46
2021/06/22 06:30:15;;;;;;;7.82;3.40;;;21.40;59.50;;;;;;5033699;28;20037;-46
2021/06/22 06:32:41;;;;;;;4.18;3.00;;;21.40;59.70;;;;;;5034662;28;20083;-47
2021/06/22 06:35:07;;;;;;;7.03;3.60;;;21.40;59.70;;;;;;5034450;28;20471;-47
2021/06/22 06:37:33;;;;;;;5.20;3.55;;;21.40;59.90;;;;;;5034369;28;20048;-46
2021/06/22 06:39:59;;;;;;;8.57;3.13;;;21.40;60.00;;;;;;5034448;28;20461;-47
2021/06/22 06:42:25;;;;;;;5.53;3.80;;;21.10;59.90;;;;;;5034568;28;20033;-47
2021/06/22 06:44:51;;;;;;;5.68;4.15;;;21.00;59.70;;;;;;5034333;28;20276;-46
2021/06/22 06:47:17;;;;;;;5.95;4.03;;;21.70;60.10;;;;;;5033162;28;20279;-46
2021/06/22 06:49:42;;;;;;;5.45;4.32;;;21.30;59.80;;;;;;5034495;28;20411;-47
2021/06/22 06:52:08;;;;;;;4.90;3.85;;;21.10;59.80;;;;;;5034550;28;20021;-47
2021/06/22 06:54:34;;;;;;;5.32;4.53;;;21.40;59.90;;;;;;5034463;28;20022;-46
2021/06/22 06:56:59;;;;;;;7.82;4.60;;;21.30;59.80;;;;;;5034330;28;20468;-48
2021/06/22 06:59:25;;;;;;;6.28;3.88;;;21.20;59.90;;;;;;5034131;28;20029;-46
2021/06/22 07:01:51;;;;;;;5.10;3.95;;;21.10;59.70;;;;;;5033983;28;20434;-46
2021/06/22 07:04:16;;;;;;;7.40;4.93;;;21.30;59.80;;;;;;5033808;28;20050;-46
2021/06/22 07:06:42;;;;;;;6.97;4.75;;;21.60;60.00;;;;;;5034122;28;20036;-47
2021/06/22 07:09:08;;;;;;;9.20;4.82;;;21.30;59.70;;;;;;5034145;28;20021;-47
2021/06/22 07:11:34;;;;;;;4.93;4.20;;;21.30;59.60;;;;;;5033708;28;20030;-46
2021/06/22 07:13:59;;;;;;;6.55;4.95;;;21.10;59.50;;;;;;5032813;28;20017;-46
2021/06/22 07:16:25;;;;;;;6.10;4.60;;;21.10;59.50;;;;;;5033939;28;20036;-47
2021/06/22 07:18:51;;;;;;;7.82;4.55;;;20.80;59.30;;;;;;5033958;28;20009;-46
2021/06/22 07:21:18;;;;;;;7.82;5.13;;;21.30;59.80;;;;;;5033817;28;20021;-47
2021/06/22 07:23:44;;;;;;;6.57;5.40;;;21.30;59.70;;;;;;5032152;28;20017;-46
2021/06/22 07:26:09;;;;;;;6.53;5.10;;;21.30;59.70;;;;;;5033870;28;20032;-46
2021/06/22 07:28:35;;;;;;;5.40;4.90;;;21.30;59.70;;;;;;5033775;28;20022;-47
2021/06/22 07:31:06;;;;;;;6.40;5.68;;;21.10;59.60;;;;;;5033739;28;20022;-47
2021/06/22 07:33:32;;;;;;;6.43;5.65;;;21.30;59.70;;;;;;5033681;28;20091;-45
2021/06/22 07:35:57;;;;;;;7.40;5.72;;;21.30;59.50;;;;;;5033356;28;20464;-45
2021/06/22 07:38:23;;;;;;;5.40;4.90;;;21.30;59.60;;;;;;5033312;28;20120;-47
2021/06/22 07:40:49;;;;;;;6.45;5.25;;;21.30;59.50;;;;;;5033291;28;20017;-46
2021/06/22 07:43:15;;;;;;;6.88;6.18;;;21.30;59.50;;;;;;5033498;28;20028;-46
2021/06/22 07:45:41;;;;;;;6.93;6.20;;;21.30;59.40;;;;;;5033498;28;20384;-47
2021/06/22 07:48:09;;;;;;;7.20;5.43;;;21.30;59.40;;;;;;5033457;28;20037;-45
2021/06/22 07:50:35;;;;;;;6.72;5.43;;;21.30;59.40;;;;;;5033380;28;20057;-46
2021/06/22 07:53:02;;;;;;;8.50;5.68;;;21.30;59.40;;;;;;5033410;28;20033;-46
2021/06/22 07:55:31;;;;;;;5.95;5.45;;;21.20;59.30;;;;;;5032798;28;20097;-46
2021/06/22 07:57:57;;;;;;;8.10;5.50;;;21.40;59.40;;;;;;5032792;28;20041;-45
2021/06/22 08:00:37;;;;;;;8.30;6.38;;;21.40;59.50;;;;;;5032987;28;20029;-45
2021/06/22 08:03:02;;;;;;;6.95;5.43;;;21.40;59.50;;;;;;5032959;28;20106;-46
2021/06/22 08:05:28;;;;;;;7.28;6.25;;;21.40;59.50;;;;;;5032698;28;20120;-45
2021/06/22 08:07:54;;;;;;;6.90;6.30;;;21.30;59.40;;;;;;5033077;28;20033;-46
2021/06/22 08:10:19;;;;;;;7.22;6.35;;;21.20;59.30;;;;;;5032868;28;20021;-46
2021/06/22 08:12:45;;;;;;;7.65;6.53;;;21.40;59.30;;;;;;5032725;28;20518;-47
2021/06/22 08:15:11;;;;;;;8.98;6.07;;;21.10;59.20;;;;;;5032775;28;20037;-45
2021/06/22 08:17:39;;;;;;;8.30;6.68;;;21.40;59.30;;;;;;5032720;28;20120;-46
2021/06/22 08:20:06;;;;;;;9.25;6.78;;;21.30;59.20;;;;;;5032631;28;20036;-45
2021/06/22 08:22:32;;;;;;;8.93;6.47;;;21.40;59.30;;;;;;5032460;28;20045;-45
2021/06/22 08:24:57;;;;;;;7.22;5.88;;;21.30;59.20;;;;;;5031320;28;20045;-45
2021/06/22 08:27:23;;;;;;;6.70;6.10;;;21.30;59.20;;;;;;5032878;28;20022;-45
2021/06/22 08:29:49;;;;;;;7.78;6.25;;;21.30;59.10;;;;;;5032683;28;20017;-45
2021/06/22 08:32:14;;;;;;;7.93;6.05;;;21.50;59.20;;;;;;5032880;28;20472;-45
2021/06/22 08:34:40;;;;;;;7.47;6.53;;;21.10;59.10;;;;;;5032831;28;20018;-45
2021/06/22 08:37:06;;;;;;;7.53;6.60;;;21.10;59.10;;;;;;5032255;28;20033;-45
2021/06/22 08:39:33;;;;;;;8.13;6.95;;;21.40;59.30;;;;;;5032764;28;20017;-46
2021/06/22 08:42:01;;;;;;;7.93;6.63;;;21.40;59.30;;;;;;5032872;28;20030;-45
2021/06/22 08:44:29;;;;;;;8.32;6.65;;;21.30;59.20;;;;;;5032472;28;20091;-47
2021/06/22 08:46:57;;;;;;;9.73;6.90;;;21.40;59.20;;;;;;5032831;28;20021;-46
2021/06/22 08:49:24;;;;;;;8.05;6.57;;;21.00;59.00;;;;;;5032778;28;20042;-47
2021/06/22 08:51:51;;;;;;;8.38;7.20;;;21.20;59.10;;;;;;5032663;28;20388;-46
2021/06/22 08:54:16;;;;;;;7.80;6.97;;;21.30;59.20;;;;;;5032553;28;20020;-46
2021/06/22 08:56:42;;;;;;;10.00;7.10;;;21.30;59.10;;;;;;5032294;28;20041;-46
2021/06/22 08:59:07;;;;;;;7.05;6.35;;;21.40;59.10;;;;;;5032599;28;20024;-46
2021/06/22 09:01:33;;;;;;;7.43;6.75;;;21.40;59.10;;;;;;5031084;28;20480;-46
2021/06/22 09:03:59;;;;;;;7.90;6.72;;;21.40;59.00;;;;;;5032063;28;20048;-46
2021/06/22 09:06:25;;;;;;;8.85;6.80;;;21.50;59.10;;;;;;5032272;28;20025;-45
2021/06/22 09:08:54;;;;;;;8.77;7.05;;;21.40;59.10;;;;;;5032561;28;20057;-45
2021/06/22 09:11:20;;;;;;;7.80;6.72;;;21.60;59.10;;;;;;5032500;28;20418;-46
2021/06/22 09:14:04;;;;;;;8.23;7.20;;;21.40;58.90;;;;;;5032546;28;20013;-46
2021/06/22 09:16:30;;;;;;;8.10;7.25;;;21.40;59.10;;;;;;5032378;28;20455;-47
2021/06/22 09:19:03;;;;;;;7.65;6.85;;;21.20;58.90;;;;;;5032231;28;20069;-48
2021/06/22 09:21:37;;;;;;;7.63;6.90;;;21.20;59.00;;;;;;5032403;28;20443;-46
2021/06/22 09:24:02;;;;;;;8.15;6.60;;;21.30;59.00;;;;;;5032507;28;20033;-46
2021/06/22 09:26:32;;;;;;;7.55;6.85;;;21.40;59.00;;;;;;5032205;28;20332;-45
2021/06/22 09:29:07;;;;;;;7.53;6.57;;;21.20;58.90;;;;;;5032161;28;20025;-46
2021/06/22 09:31:34;;;;;;;7.72;6.93;;;21.40;59.10;;;;;;5032326;28;20143;-46
2021/06/22 09:33:59;;;;;;;8.32;6.88;;;21.40;59.20;;;;;;5032379;28;20436;-46
2021/06/22 09:36:27;;;;;;;6.95;6.35;;;21.40;59.10;;;;;;5032957;28;20021;-46
2021/06/22 09:38:58;;;;;;;8.10;7.05;;;21.40;59.00;;;;;;5034438;28;20416;-46
2021/06/22 09:41:31;;;;;;;7.00;6.40;;;21.40;58.90;;;;;;5035979;28;20072;-45
2021/06/22 09:44:16;;;;;;;7.75;6.68;;;21.40;58.80;;;;;;5035589;28;20028;-46
2021/06/22 09:46:56;;;;;;;10.07;7.22;;;21.60;58.90;;;;;;5035822;28;20350;-47
2021/06/22 09:49:28;;;;;;;7.15;6.55;;;21.40;58.80;;;;;;5035642;28;20104;-47
2021/06/22 09:52:01;;;;;;;8.57;6.70;;;21.40;58.30;;;;;;5035664;28;20022;-47
2021/06/22 09:54:29;;;;;;;8.43;6.70;;;21.40;57.50;;;;;;5035456;28;20028;-47
2021/06/22 09:56:55;;;;;;;8.70;6.38;;;21.40;57.00;;;;;;5035399;28;20041;-46
2021/06/22 09:59:21;;;;;;;7.07;6.35;;;21.80;57.10;;;;;;5035482;28;20095;-47
2021/06/22 10:01:46;;;;;;;8.52;6.63;;;21.50;57.40;;;;;;5035226;28;20022;-46
2021/06/22 10:04:18;;;;;;;7.60;6.68;;;21.60;56.80;;;;;;5033865;28;20189;-45
2021/06/22 10:06:55;;;;;;;7.95;6.53;;;21.60;57.00;;;;;;5035480;28;20049;-47
2021/06/22 10:09:23;;;;;;;8.20;6.68;;;21.60;57.40;;;;;;5035665;28;20025;-47
2021/06/22 10:12:05;;;;;;;7.20;6.50;;;21.60;57.00;;;;;;5035532;28;20029;-47
2021/06/22 10:14:52;;;;;;;6.28;5.70;;;21.60;57.00;;;;;;5035521;28;20067;-47
2021/06/22 10:17:21;;;;;;;7.03;5.95;;;21.60;56.80;;;;;;5035030;28;20167;-46
2021/06/22 10:19:52;;;;;;;8.10;6.38;;;21.60;56.70;;;;;;5034912;28;20048;-48
2021/06/22 10:22:23;;;;;;;7.90;6.35;;;21.60;57.20;;;;;;5035197;28;20431;-46
2021/06/22 10:24:49;;;;;;;6.35;5.75;;;21.30;57.00;;;;;;5033751;28;20022;-47
2021/06/22 10:27:17;;;;;;;6.55;5.60;;;21.50;57.10;;;;;;5034855;28;20284;-48
2021/06/22 10:29:45;;;;;;;9.18;6.10;;;21.60;57.00;;;;;;5035185;28;20026;-47
2021/06/22 10:32:11;;;;;;;7.78;6.05;;;21.60;56.50;;;;;;5034875;28;20033;-45
2021/06/22 10:34:37;;;;;;;6.78;6.07;;;21.60;56.30;;;;;;5034744;28;20049;-46
2021/06/22 10:37:37;;;;;;;7.70;5.78;;;21.50;56.00;;;;;;5034529;28;20073;-46
2021/06/22 10:40:11;;;;;;;7.47;5.95;;;21.70;56.10;;;;;;5030489;28;20038;-45
2021/06/22 10:42:43;;;;;;;8.13;5.72;;;21.80;56.20;;;;;;5034504;28;20119;-46
2021/06/22 10:45:09;;;;;;;6.53;5.93;;;21.80;56.10;;;;;;5034614;28;20017;-46
2021/06/22 10:47:42;;;;;;;5.53;5.03;;;21.80;56.00;;;;;;5034186;28;20053;-47
2021/06/22 10:50:12;;;;;;;5.55;4.95;;;21.80;55.70;;;;;;5034301;28;20010;-48
2021/06/22 10:52:47;;;;;;;7.32;5.03;;;21.70;55.40;;;;;;5034498;28;20033;-46
2021/06/22 10:55:20;;;;;;;6.38;5.72;;;21.90;55.80;;;;;;5034362;28;20037;-46
2021/06/22 10:58:05;;;;;;;5.63;5.07;;;21.70;55.30;;;;;;5034320;28;20099;-46
2021/06/22 11:00:37;;;;;;;6.18;5.38;;;21.90;55.40;;;;;;5033937;28;20468;-45
2021/06/22 11:03:22;;;;;;;5.72;4.47;;;21.80;55.30;;;;;;5034059;28;20057;-47
2021/06/22 11:05:48;;;;;;;5.75;5.13;;;21.90;55.40;;;;;;5032606;28;20045;-47
2021/06/22 11:08:17;;;;;;;6.50;5.22;;;21.90;55.60;;;;;;5034136;28;20056;-46
2021/06/22 11:11:08;;;;;;;6.95;4.32;;;21.90;55.40;;;;;;5034124;28;20021;-47
2021/06/22 11:13:39;;;;;;;5.18;4.63;;;21.90;55.50;;;;;;5033908;28;20025;-46
2021/06/22 11:16:21;;;;;;;6.45;5.20;;;21.80;55.50;;;;;;5033758;28;20272;-46
2021/06/22 11:18:56;;;;;;;5.22;4.25;;;21.90;55.40;;;;;;5033768;28;20034;-46
2021/06/22 11:21:28;;;;;;;6.60;4.63;;;21.70;55.30;;;;;;5033688;28;20168;-46
2021/06/22 11:24:07;;;;;;;6.60;4.22;;;21.90;55.50;;;;;;5033477;28;20117;-46
2021/06/22 11:26:44;;;;;;;5.77;4.40;;;21.90;55.40;;;;;;5033518;28;20524;-45
2021/06/22 11:29:14;;;;;;;4.80;3.90;;;21.90;55.50;;;;;;5033403;28;20028;-45
2021/06/22 11:31:45;;;;;;;;;;;21.90;55.50;;;;;;5033997;28;20036;-46
2021/06/22 11:34:19;;;;;;;4.68;3.85;;;21.90;55.40;;;;;;5033484;28;19948;-45
2021/06/22 11:36:55;;;;;;;7.57;4.05;;;22.00;55.60;;;;;;5032988;28;20048;-47
2021/06/22 11:39:24;;;;;;;8.30;4.28;;;22.00;55.30;;;;;;5033606;28;20104;-47
2021/06/22 11:42:11;;;;;;;4.70;3.75;;;22.00;55.40;;;;;;5033251;28;20018;-46
2021/06/22 11:44:41;;;;;;;4.57;3.97;;;22.00;55.50;;;;;;5033111;28;20029;-46
2021/06/22 11:47:14;;;;;;;6.88;3.83;;;21.90;55.50;;;;;;5033541;28;20388;-45
2021/06/22 11:49:48;;;;;;;5.00;3.70;;;22.00;55.50;;;;;;5033234;28;20033;-47
2021/06/22 11:52:20;;;;;;;5.68;3.63;;;22.00;55.50;;;;;;5033442;28;20053;-47
2021/06/22 11:54:54;;;;;;;4.78;3.65;;;21.70;55.20;;;;;;5033169;28;20100;-46
2021/06/22 11:57:31;;;;;;;5.55;3.67;;;21.90;55.30;;;;;;5032951;28;20550;-45
2021/06/22 12:00:05;;;;;;;5.68;3.90;;;22.00;55.60;;;;;;5032748;28;20022;-46
2021/06/22 12:02:30;;;;;;;3.83;3.42;;;22.00;55.90;;;;;;5033193;28;20061;-46
2021/06/22 12:04:56;;;;;;;5.55;3.90;;;22.00;55.70;;;;;;5032923;28;20076;-47
2021/06/22 12:07:21;;;;;;;4.20;3.55;;;22.00;55.60;;;;;;5033192;28;20060;-47
2021/06/22 12:09:47;;;;;;;4.90;3.75;;;22.00;55.60;;;;;;5033210;28;20082;-46
2021/06/22 12:12:15;;;;;;;6.10;4.03;;;21.90;55.60;;;;;;5032839;28;20021;-46
2021/06/22 12:14:46;;;;;;;4.10;3.67;;;21.80;55.60;;;;;;5032830;28;20029;-47
2021/06/22 12:17:16;;;;;;;4.57;3.47;;;22.00;55.70;;;;;;5032645;28;20538;-45
2021/06/22 12:19:42;;;;;;;4.75;4.25;;;22.00;55.80;;;;;;5031608;28;20021;-47
2021/06/22 12:22:12;;;;;;;4.03;3.65;;;21.70;55.60;;;;;;5032826;28;20030;-45
2021/06/22 12:24:39;;;;;;;5.15;3.40;;;22.00;55.90;;;;;;5032497;28;20020;-45
2021/06/22 12:27:05;;;;;;;5.07;3.70;;;22.00;55.90;;;;;;5032814;28;20095;-46
2021/06/22 12:29:31;;;;;;;5.50;3.50;;;22.00;56.10;;;;;;5032684;28;20076;-48
2021/06/22 12:32:06;;;;;;;4.13;3.03;;;22.00;56.00;;;;;;5033018;28;20037;-47
2021/06/22 12:34:36;;;;;;;4.30;3.20;;;22.00;56.00;;;;;;5032629;28;20379;-45
2021/06/22 12:37:02;;;;;;;5.60;3.67;;;21.90;55.70;;;;;;5032539;28;20399;-45
2021/06/22 12:39:37;;;;;;;6.25;3.80;;;22.00;55.90;;;;;;5032801;28;20025;-46
2021/06/22 12:42:08;;;;;;;3.95;3.33;;;21.80;55.60;;;;;;5032774;28;20057;-46
2021/06/22 12:44:34;;;;;;;4.85;3.55;;;22.00;55.80;;;;;;5032637;28;20506;-47
2021/06/22 12:47:05;;;;;;;4.45;3.50;;;21.90;55.90;;;;;;5032689;28;20023;-46
2021/06/22 12:49:33;;;;;;;4.85;3.72;;;22.00;55.90;;;;;;5032414;28;20033;-47
2021/06/22 12:52:02;;;;;;;3.85;3.22;;;22.20;55.90;;;;;;5032633;28;20024;-46